sensor_id;sensor_type;location;lat;lon;timestamp;P1;durP1;ratioP1;P2;durP2;ratioP2
9007;SDS011;62813;51.424;6.762;2022-10-16T00:01:18;7.17;;;3.20;;
9007;SDS011;62813;51.424;6.762;2022-10-16T00:03:46;6.13;;;3.40;;
9007;SDS011;62813;51.424;6.762;2022-10-16T00:06:14;3.93;;;3.00;;
9007;SDS011;62813;51.424;6.762;2022-10-16T00:08:42;5.03;;;3.10;;
9007;SDS011;62813;51.424;6.762;2022-10-16T00:11:10;4.67;;;3.33;;
9007;SDS011;62813;51.424;6.762;2022-10-16T00:13:40;5.33;;;3.57;;
9007;SDS011;62813;51.424;6.762;2022-10-16T00:16:08;5.40;;;3.53;;
9007;SDS011;62813;51.424;6.762;2022-10-16T00:18:36;7.30;;;3.53;;
9007;SDS011;62813;51.424;6.762;2022-10-16T00:21:04;7.27;;;3.87;;
9007;SDS011;62813;51.424;6.762;2022-10-16T00:23:42;8.37;;;3.60;;
9007;SDS011;62813;51.424;6.762;2022-10-16T00:26:10;6.57;;;3.47;;
9007;SDS011;62813;51.424;6.762;2022-10-16T00:28:39;7.00;;;3.70;;
9007;SDS011;62813;51.424;6.762;2022-10-16T00:31:07;8.17;;;3.70;;
9007;SDS011;62813;51.424;6.762;2022-10-16T00:33:37;8.93;;;3.70;;
9007;SDS011;62813;51.424;6.762;2022-10-16T00:36:06;5.33;;;3.80;;
9007;SDS011;62813;51.424;6.762;2022-10-16T00:38:33;4.80;;;3.67;;
9007;SDS011;62813;51.424;6.762;2022-10-16T00:41:00;9.57;;;3.63;;
9007;SDS011;62813;51.424;6.762;2022-10-16T00:43:34;7.30;;;3.40;;
9007;SDS011;62813;51.424;6.762;2022-10-16T00:49:03;5.90;;;3.37;;
9007;SDS011;62813;51.424;6.762;2022-10-16T00:51:46;6.43;;;3.47;;
9007;SDS011;62813;51.424;6.762;2022-10-16T00:54:23;6.27;;;3.67;;
9007;SDS011;62813;51.424;6.762;2022-10-16T00:56:52;7.23;;;3.27;;
9007;SDS011;62813;51.424;6.762;2022-10-16T00:59:24;7.67;;;3.60;;
9007;SDS011;62813;51.424;6.762;2022-10-16T01:01:56;7.70;;;3.10;;
9007;SDS011;62813;51.424;6.762;2022-10-16T01:04:23;5.80;;;3.20;;
9007;SDS011;62813;51.424;6.762;2022-10-16T01:12:14;5.20;;;3.20;;
9007;SDS011;62813;51.424;6.762;2022-10-16T01:23:56;5.63;;;3.53;;
9007;SDS011;62813;51.424;6.762;2022-10-16T01:32:30;9.53;;;5.30;;
9007;SDS011;62813;51.424;6.762;2022-10-16T01:37:40;9.43;;;5.70;;
9007;SDS011;62813;51.424;6.762;2022-10-16T01:40:13;5.90;;;5.30;;
9007;SDS011;62813;51.424;6.762;2022-10-16T01:42:44;6.97;;;5.50;;
9007;SDS011;62813;51.424;6.762;2022-10-16T01:45:16;8.37;;;6.00;;
9007;SDS011;62813;51.424;6.762;2022-10-16T01:47:46;8.73;;;5.53;;
9007;SDS011;62813;51.424;6.762;2022-10-16T01:50:16;8.20;;;5.17;;
9007;SDS011;62813;51.424;6.762;2022-10-16T01:52:46;7.20;;;5.23;;
9007;SDS011;62813;51.424;6.762;2022-10-16T01:55:22;8.20;;;6.13;;
9007;SDS011;62813;51.424;6.762;2022-10-16T01:57:52;8.67;;;6.77;;
9007;SDS011;62813;51.424;6.762;2022-10-16T02:00:21;8.87;;;7.37;;
9007;SDS011;62813;51.424;6.762;2022-10-16T02:02:49;10.87;;;7.73;;
9007;SDS011;62813;51.424;6.762;2022-10-16T02:05:21;8.73;;;6.93;;
9007;SDS011;62813;51.424;6.762;2022-10-16T02:07:52;7.50;;;6.50;;
9007;SDS011;62813;51.424;6.762;2022-10-16T02:10:19;11.70;;;7.20;;
9007;SDS011;62813;51.424;6.762;2022-10-16T02:12:57;13.03;;;6.37;;
9007;SDS011;62813;51.424;6.762;2022-10-16T02:15:27;9.60;;;6.10;;
9007;SDS011;62813;51.424;6.762;2022-10-16T02:17:53;6.47;;;5.00;;
9007;SDS011;62813;51.424;6.762;2022-10-16T02:20:21;7.20;;;4.80;;
9007;SDS011;62813;51.424;6.762;2022-10-16T02:22:53;5.00;;;4.27;;
9007;SDS011;62813;51.424;6.762;2022-10-16T02:25:24;7.53;;;3.53;;
9007;SDS011;62813;51.424;6.762;2022-10-16T02:27:56;5.37;;;3.30;;
9007;SDS011;62813;51.424;6.762;2022-10-16T02:30:29;6.40;;;3.13;;
9007;SDS011;62813;51.424;6.762;2022-10-16T02:33:00;5.07;;;2.93;;
9007;SDS011;62813;51.424;6.762;2022-10-16T02:35:30;4.57;;;2.40;;
9007;SDS011;62813;51.424;6.762;2022-10-16T02:37:57;8.83;;;2.23;;
9007;SDS011;62813;51.424;6.762;2022-10-16T02:40:25;4.57;;;2.37;;
9007;SDS011;62813;51.424;6.762;2022-10-16T02:42:52;3.30;;;1.93;;
9007;SDS011;62813;51.424;6.762;2022-10-16T02:45:20;2.87;;;1.90;;
9007;SDS011;62813;51.424;6.762;2022-10-16T02:47:48;3.97;;;1.80;;
9007;SDS011;62813;51.424;6.762;2022-10-16T02:50:15;3.23;;;1.90;;
9007;SDS011;62813;51.424;6.762;2022-10-16T02:52:42;4.37;;;2.23;;
9007;SDS011;62813;51.424;6.762;2022-10-16T02:55:09;3.47;;;1.70;;
9007;SDS011;62813;51.424;6.762;2022-10-16T02:57:35;4.10;;;1.90;;
9007;SDS011;62813;51.424;6.762;2022-10-16T03:00:04;3.53;;;2.10;;
9007;SDS011;62813;51.424;6.762;2022-10-16T03:02:31;2.93;;;1.97;;
9007;SDS011;62813;51.424;6.762;2022-10-16T03:04:57;5.70;;;1.70;;
9007;SDS011;62813;51.424;6.762;2022-10-16T03:07:24;3.23;;;1.93;;
9007;SDS011;62813;51.424;6.762;2022-10-16T03:09:52;3.70;;;1.93;;
9007;SDS011;62813;51.424;6.762;2022-10-16T03:12:18;3.57;;;1.93;;
9007;SDS011;62813;51.424;6.762;2022-10-16T03:14:44;3.17;;;1.63;;
9007;SDS011;62813;51.424;6.762;2022-10-16T03:17:11;5.07;;;1.80;;
9007;SDS011;62813;51.424;6.762;2022-10-16T03:19:39;2.40;;;1.77;;
9007;SDS011;62813;51.424;6.762;2022-10-16T03:22:05;4.43;;;1.60;;
9007;SDS011;62813;51.424;6.762;2022-10-16T03:24:32;2.90;;;1.80;;
9007;SDS011;62813;51.424;6.762;2022-10-16T03:26:58;3.03;;;1.70;;
9007;SDS011;62813;51.424;6.762;2022-10-16T03:29:25;3.23;;;1.80;;
9007;SDS011;62813;51.424;6.762;2022-10-16T03:31:52;3.17;;;1.60;;
9007;SDS011;62813;51.424;6.762;2022-10-16T03:34:18;4.23;;;1.70;;
9007;SDS011;62813;51.424;6.762;2022-10-16T03:36:45;3.60;;;1.60;;
9007;SDS011;62813;51.424;6.762;2022-10-16T03:39:11;2.50;;;1.57;;
9007;SDS011;62813;51.424;6.762;2022-10-16T03:41:38;2.63;;;1.73;;
9007;SDS011;62813;51.424;6.762;2022-10-16T03:44:05;4.27;;;1.90;;
9007;SDS011;62813;51.424;6.762;2022-10-16T03:46:32;5.73;;;1.57;;
9007;SDS011;62813;51.424;6.762;2022-10-16T03:48:58;4.47;;;1.83;;
9007;SDS011;62813;51.424;6.762;2022-10-16T03:51:25;5.23;;;1.60;;
9007;SDS011;62813;51.424;6.762;2022-10-16T03:53:51;1.73;;;1.43;;
9007;SDS011;62813;51.424;6.762;2022-10-16T03:56:18;3.83;;;1.70;;
9007;SDS011;62813;51.424;6.762;2022-10-16T03:58:45;3.20;;;1.30;;
9007;SDS011;62813;51.424;6.762;2022-10-16T04:01:11;2.33;;;1.60;;
9007;SDS011;62813;51.424;6.762;2022-10-16T04:03:38;2.40;;;1.47;;
9007;SDS011;62813;51.424;6.762;2022-10-16T04:06:04;2.50;;;1.17;;
9007;SDS011;62813;51.424;6.762;2022-10-16T04:08:31;2.67;;;1.40;;
9007;SDS011;62813;51.424;6.762;2022-10-16T04:11:01;2.10;;;1.40;;
9007;SDS011;62813;51.424;6.762;2022-10-16T04:13:27;2.03;;;1.50;;
9007;SDS011;62813;51.424;6.762;2022-10-16T04:15:54;3.93;;;1.37;;
9007;SDS011;62813;51.424;6.762;2022-10-16T04:18:20;1.97;;;1.40;;
9007;SDS011;62813;51.424;6.762;2022-10-16T04:20:47;2.37;;;1.50;;
9007;SDS011;62813;51.424;6.762;2022-10-16T04:23:13;2.73;;;1.50;;
9007;SDS011;62813;51.424;6.762;2022-10-16T04:25:40;2.10;;;1.40;;
9007;SDS011;62813;51.424;6.762;2022-10-16T04:28:06;1.73;;;1.23;;
9007;SDS011;62813;51.424;6.762;2022-10-16T04:30:34;7.27;;;1.40;;
9007;SDS011;62813;51.424;6.762;2022-10-16T04:33:00;2.20;;;1.33;;
9007;SDS011;62813;51.424;6.762;2022-10-16T04:35:46;2.50;;;1.50;;
9007;SDS011;62813;51.424;6.762;2022-10-16T04:38:13;3.50;;;1.40;;
9007;SDS011;62813;51.424;6.762;2022-10-16T04:40:41;4.90;;;1.70;;
9007;SDS011;62813;51.424;6.762;2022-10-16T04:43:08;3.03;;;1.50;;
9007;SDS011;62813;51.424;6.762;2022-10-16T04:45:35;2.70;;;1.60;;
9007;SDS011;62813;51.424;6.762;2022-10-16T04:48:02;2.33;;;1.37;;
9007;SDS011;62813;51.424;6.762;2022-10-16T04:50:28;5.53;;;1.70;;
9007;SDS011;62813;51.424;6.762;2022-10-16T04:52:55;2.57;;;1.50;;
9007;SDS011;62813;51.424;6.762;2022-10-16T04:55:21;3.43;;;1.50;;
9007;SDS011;62813;51.424;6.762;2022-10-16T04:57:48;1.97;;;1.50;;
9007;SDS011;62813;51.424;6.762;2022-10-16T05:00:14;2.07;;;1.67;;
9007;SDS011;62813;51.424;6.762;2022-10-16T05:02:41;1.97;;;1.50;;
9007;SDS011;62813;51.424;6.762;2022-10-16T05:05:08;3.37;;;1.23;;
9007;SDS011;62813;51.424;6.762;2022-10-16T05:07:34;2.27;;;1.43;;
9007;SDS011;62813;51.424;6.762;2022-10-16T05:10:01;2.57;;;1.33;;
9007;SDS011;62813;51.424;6.762;2022-10-16T05:12:27;2.67;;;1.40;;
9007;SDS011;62813;51.424;6.762;2022-10-16T05:14:54;2.33;;;1.40;;
9007;SDS011;62813;51.424;6.762;2022-10-16T05:17:25;3.00;;;1.30;;
9007;SDS011;62813;51.424;6.762;2022-10-16T05:19:52;2.10;;;1.60;;
9007;SDS011;62813;51.424;6.762;2022-10-16T05:22:19;3.67;;;1.43;;
9007;SDS011;62813;51.424;6.762;2022-10-16T05:24:45;3.73;;;1.57;;
9007;SDS011;62813;51.424;6.762;2022-10-16T05:27:12;2.20;;;1.20;;
9007;SDS011;62813;51.424;6.762;2022-10-16T05:29:45;3.37;;;1.30;;
9007;SDS011;62813;51.424;6.762;2022-10-16T05:32:16;2.53;;;1.30;;
9007;SDS011;62813;51.424;6.762;2022-10-16T05:34:44;4.77;;;1.30;;
9007;SDS011;62813;51.424;6.762;2022-10-16T05:37:11;3.93;;;1.57;;
9007;SDS011;62813;51.424;6.762;2022-10-16T05:39:38;4.77;;;1.50;;
9007;SDS011;62813;51.424;6.762;2022-10-16T05:42:05;4.40;;;1.40;;
9007;SDS011;62813;51.424;6.762;2022-10-16T05:44:32;1.63;;;1.40;;
9007;SDS011;62813;51.424;6.762;2022-10-16T05:47:19;1.60;;;1.40;;
9007;SDS011;62813;51.424;6.762;2022-10-16T05:49:47;1.47;;;1.30;;
9007;SDS011;62813;51.424;6.762;2022-10-16T05:52:13;1.97;;;1.23;;
9007;SDS011;62813;51.424;6.762;2022-10-16T05:54:40;1.33;;;1.20;;
9007;SDS011;62813;51.424;6.762;2022-10-16T05:57:06;2.60;;;1.17;;
9007;SDS011;62813;51.424;6.762;2022-10-16T05:59:33;3.73;;;1.60;;
9007;SDS011;62813;51.424;6.762;2022-10-16T06:01:59;3.60;;;1.50;;
9007;SDS011;62813;51.424;6.762;2022-10-16T06:04:26;3.07;;;1.57;;
9007;SDS011;62813;51.424;6.762;2022-10-16T06:06:53;3.57;;;1.67;;
9007;SDS011;62813;51.424;6.762;2022-10-16T06:09:19;3.97;;;1.53;;
9007;SDS011;62813;51.424;6.762;2022-10-16T06:11:46;3.53;;;1.10;;
9007;SDS011;62813;51.424;6.762;2022-10-16T06:14:12;3.80;;;1.50;;
9007;SDS011;62813;51.424;6.762;2022-10-16T06:16:39;1.93;;;1.40;;
9007;SDS011;62813;51.424;6.762;2022-10-16T06:19:06;9.70;;;1.70;;
9007;SDS011;62813;51.424;6.762;2022-10-16T06:21:34;4.33;;;1.50;;
9007;SDS011;62813;51.424;6.762;2022-10-16T06:24:01;8.27;;;1.80;;
9007;SDS011;62813;51.424;6.762;2022-10-16T06:26:28;4.37;;;1.37;;
9007;SDS011;62813;51.424;6.762;2022-10-16T06:28:57;3.93;;;2.10;;
9007;SDS011;62813;51.424;6.762;2022-10-16T06:31:25;5.27;;;2.13;;
9007;SDS011;62813;51.424;6.762;2022-10-16T06:33:55;3.67;;;1.80;;
9007;SDS011;62813;51.424;6.762;2022-10-16T06:36:22;2.37;;;1.70;;
9007;SDS011;62813;51.424;6.762;2022-10-16T06:38:50;4.13;;;1.70;;
9007;SDS011;62813;51.424;6.762;2022-10-16T06:41:18;2.93;;;1.70;;
9007;SDS011;62813;51.424;6.762;2022-10-16T06:43:46;1.90;;;1.60;;
9007;SDS011;62813;51.424;6.762;2022-10-16T06:46:14;2.50;;;1.40;;
9007;SDS011;62813;51.424;6.762;2022-10-16T06:48:42;1.83;;;1.30;;
9007;SDS011;62813;51.424;6.762;2022-10-16T06:51:10;6.33;;;1.50;;
9007;SDS011;62813;51.424;6.762;2022-10-16T06:53:39;3.83;;;1.90;;
9007;SDS011;62813;51.424;6.762;2022-10-16T06:56:27;7.00;;;1.80;;
9007;SDS011;62813;51.424;6.762;2022-10-16T06:58:56;2.60;;;1.97;;
9007;SDS011;62813;51.424;6.762;2022-10-16T07:01:23;3.63;;;1.70;;
9007;SDS011;62813;51.424;6.762;2022-10-16T07:03:50;4.83;;;1.87;;
9007;SDS011;62813;51.424;6.762;2022-10-16T07:06:17;3.30;;;1.93;;
9007;SDS011;62813;51.424;6.762;2022-10-16T07:08:46;5.40;;;1.97;;
9007;SDS011;62813;51.424;6.762;2022-10-16T07:11:14;3.47;;;1.83;;
9007;SDS011;62813;51.424;6.762;2022-10-16T07:13:43;2.90;;;1.77;;
9007;SDS011;62813;51.424;6.762;2022-10-16T07:16:20;2.57;;;1.87;;
9007;SDS011;62813;51.424;6.762;2022-10-16T07:18:48;2.20;;;1.67;;
9007;SDS011;62813;51.424;6.762;2022-10-16T07:21:16;6.13;;;2.20;;
9007;SDS011;62813;51.424;6.762;2022-10-16T07:23:53;3.07;;;2.00;;
9007;SDS011;62813;51.424;6.762;2022-10-16T07:26:21;4.57;;;1.80;;
9007;SDS011;62813;51.424;6.762;2022-10-16T07:28:49;4.07;;;2.20;;
9007;SDS011;62813;51.424;6.762;2022-10-16T07:31:17;4.43;;;1.70;;
9007;SDS011;62813;51.424;6.762;2022-10-16T07:33:46;4.37;;;2.20;;
9007;SDS011;62813;51.424;6.762;2022-10-16T07:36:14;4.00;;;2.00;;
9007;SDS011;62813;51.424;6.762;2022-10-16T07:38:42;5.23;;;1.93;;
9007;SDS011;62813;51.424;6.762;2022-10-16T07:41:10;3.70;;;2.20;;
9007;SDS011;62813;51.424;6.762;2022-10-16T07:43:39;3.83;;;2.10;;
9007;SDS011;62813;51.424;6.762;2022-10-16T07:46:06;3.70;;;2.07;;
9007;SDS011;62813;51.424;6.762;2022-10-16T07:48:33;4.30;;;2.03;;
9007;SDS011;62813;51.424;6.762;2022-10-16T07:51:01;6.53;;;1.90;;
9007;SDS011;62813;51.424;6.762;2022-10-16T07:53:30;5.57;;;2.00;;
9007;SDS011;62813;51.424;6.762;2022-10-16T07:55:57;4.90;;;1.77;;
9007;SDS011;62813;51.424;6.762;2022-10-16T07:58:26;3.23;;;1.90;;
9007;SDS011;62813;51.424;6.762;2022-10-16T08:00:54;3.27;;;1.73;;
9007;SDS011;62813;51.424;6.762;2022-10-16T08:03:21;5.80;;;2.10;;
9007;SDS011;62813;51.424;6.762;2022-10-16T08:05:48;3.17;;;2.17;;
9007;SDS011;62813;51.424;6.762;2022-10-16T08:08:15;2.33;;;2.00;;
9007;SDS011;62813;51.424;6.762;2022-10-16T08:10:45;3.47;;;2.30;;
9007;SDS011;62813;51.424;6.762;2022-10-16T08:13:11;4.43;;;2.10;;
9007;SDS011;62813;51.424;6.762;2022-10-16T08:15:42;6.20;;;2.60;;
9007;SDS011;62813;51.424;6.762;2022-10-16T08:18:09;5.07;;;2.60;;
9007;SDS011;62813;51.424;6.762;2022-10-16T08:20:37;3.67;;;2.43;;
9007;SDS011;62813;51.424;6.762;2022-10-16T08:23:04;5.60;;;2.23;;
9007;SDS011;62813;51.424;6.762;2022-10-16T08:25:31;4.17;;;2.03;;
9007;SDS011;62813;51.424;6.762;2022-10-16T08:28:03;6.33;;;2.57;;
9007;SDS011;62813;51.424;6.762;2022-10-16T08:30:33;5.57;;;2.00;;
9007;SDS011;62813;51.424;6.762;2022-10-16T08:33:00;5.43;;;2.53;;
9007;SDS011;62813;51.424;6.762;2022-10-16T08:35:27;5.83;;;2.53;;
9007;SDS011;62813;51.424;6.762;2022-10-16T08:37:54;7.53;;;2.90;;
9007;SDS011;62813;51.424;6.762;2022-10-16T08:40:25;5.60;;;2.60;;
9007;SDS011;62813;51.424;6.762;2022-10-16T08:50:45;3.43;;;1.70;;
9007;SDS011;62813;51.424;6.762;2022-10-16T08:53:26;4.57;;;1.60;;
9007;SDS011;62813;51.424;6.762;2022-10-16T08:55:57;2.50;;;1.30;;
9007;SDS011;62813;51.424;6.762;2022-10-16T08:58:28;4.93;;;1.50;;
9007;SDS011;62813;51.424;6.762;2022-10-16T09:01:00;4.20;;;1.70;;
9007;SDS011;62813;51.424;6.762;2022-10-16T09:06:09;4.13;;;1.40;;
9007;SDS011;62813;51.424;6.762;2022-10-16T09:11:30;4.00;;;1.50;;
9007;SDS011;62813;51.424;6.762;2022-10-16T09:14:05;4.90;;;1.27;;
9007;SDS011;62813;51.424;6.762;2022-10-16T09:16:49;2.30;;;1.60;;
9007;SDS011;62813;51.424;6.762;2022-10-16T09:19:25;4.50;;;1.57;;
9007;SDS011;62813;51.424;6.762;2022-10-16T09:21:58;4.90;;;1.40;;
9007;SDS011;62813;51.424;6.762;2022-10-16T09:24:26;1.80;;;1.07;;
9007;SDS011;62813;51.424;6.762;2022-10-16T09:26:54;6.80;;;1.60;;
9007;SDS011;62813;51.424;6.762;2022-10-16T09:29:21;3.67;;;1.50;;
9007;SDS011;62813;51.424;6.762;2022-10-16T09:31:49;2.60;;;1.20;;
9007;SDS011;62813;51.424;6.762;2022-10-16T09:34:28;2.80;;;1.23;;
9007;SDS011;62813;51.424;6.762;2022-10-16T09:37:03;4.87;;;1.50;;
9007;SDS011;62813;51.424;6.762;2022-10-16T09:39:43;8.20;;;1.60;;
9007;SDS011;62813;51.424;6.762;2022-10-16T09:42:14;5.00;;;1.20;;
9007;SDS011;62813;51.424;6.762;2022-10-16T09:44:42;3.57;;;1.40;;
9007;SDS011;62813;51.424;6.762;2022-10-16T09:49:53;4.90;;;1.10;;
9007;SDS011;62813;51.424;6.762;2022-10-16T09:52:28;2.13;;;1.00;;
9007;SDS011;62813;51.424;6.762;2022-10-16T09:54:59;3.07;;;1.20;;
9007;SDS011;62813;51.424;6.762;2022-10-16T09:57:27;1.57;;;1.07;;
9007;SDS011;62813;51.424;6.762;2022-10-16T09:59:56;2.80;;;1.10;;
9007;SDS011;62813;51.424;6.762;2022-10-16T10:02:31;1.40;;;1.10;;
9007;SDS011;62813;51.424;6.762;2022-10-16T10:05:01;1.73;;;1.20;;
9007;SDS011;62813;51.424;6.762;2022-10-16T10:07:31;5.60;;;1.70;;
9007;SDS011;62813;51.424;6.762;2022-10-16T10:10:01;3.47;;;1.13;;
9007;SDS011;62813;51.424;6.762;2022-10-16T10:12:30;3.13;;;1.40;;
9007;SDS011;62813;51.424;6.762;2022-10-16T10:15:06;2.40;;;1.20;;
9007;SDS011;62813;51.424;6.762;2022-10-16T10:17:45;5.57;;;1.27;;
9007;SDS011;62813;51.424;6.762;2022-10-16T10:20:32;2.67;;;1.13;;
9007;SDS011;62813;51.424;6.762;2022-10-16T10:23:01;6.37;;;1.27;;
9007;SDS011;62813;51.424;6.762;2022-10-16T10:25:54;4.07;;;1.10;;
9007;SDS011;62813;51.424;6.762;2022-10-16T10:31:14;3.03;;;1.07;;
9007;SDS011;62813;51.424;6.762;2022-10-16T10:33:48;3.00;;;0.97;;
9007;SDS011;62813;51.424;6.762;2022-10-16T10:46:58;2.87;;;1.23;;
9007;SDS011;62813;51.424;6.762;2022-10-16T10:58:14;3.80;;;1.50;;
9007;SDS011;62813;51.424;6.762;2022-10-16T11:06:39;3.37;;;1.30;;
9007;SDS011;62813;51.424;6.762;2022-10-16T11:11:45;4.17;;;1.30;;
9007;SDS011;62813;51.424;6.762;2022-10-16T11:14:18;4.80;;;1.10;;
9007;SDS011;62813;51.424;6.762;2022-10-16T11:22:22;4.27;;;1.10;;
9007;SDS011;62813;51.424;6.762;2022-10-16T11:24:59;2.07;;;1.00;;
9007;SDS011;62813;51.424;6.762;2022-10-16T11:27:36;3.63;;;1.43;;
9007;SDS011;62813;51.424;6.762;2022-10-16T11:37:09;2.87;;;1.57;;
9007;SDS011;62813;51.424;6.762;2022-10-16T11:39:38;4.90;;;1.30;;
9007;SDS011;62813;51.424;6.762;2022-10-16T11:42:10;4.53;;;1.30;;
9007;SDS011;62813;51.424;6.762;2022-10-16T11:53:13;3.70;;;1.33;;
9007;SDS011;62813;51.424;6.762;2022-10-16T11:55:48;3.60;;;1.50;;
9007;SDS011;62813;51.424;6.762;2022-10-16T12:01:01;6.83;;;1.77;;
9007;SDS011;62813;51.424;6.762;2022-10-16T12:08:55;4.33;;;1.50;;
9007;SDS011;62813;51.424;6.762;2022-10-16T12:14:17;2.77;;;1.30;;
9007;SDS011;62813;51.424;6.762;2022-10-16T12:19:45;3.83;;;1.37;;
9007;SDS011;62813;51.424;6.762;2022-10-16T12:22:27;3.60;;;1.50;;
9007;SDS011;62813;51.424;6.762;2022-10-16T12:24:57;4.80;;;1.60;;
9007;SDS011;62813;51.424;6.762;2022-10-16T12:27:27;4.40;;;1.60;;
9007;SDS011;62813;51.424;6.762;2022-10-16T12:29:59;4.80;;;1.60;;
9007;SDS011;62813;51.424;6.762;2022-10-16T12:32:37;1.33;;;1.20;;
9007;SDS011;62813;51.424;6.762;2022-10-16T12:35:24;4.03;;;1.53;;
9007;SDS011;62813;51.424;6.762;2022-10-16T12:37:53;6.33;;;1.80;;
9007;SDS011;62813;51.424;6.762;2022-10-16T12:42:53;4.03;;;1.60;;
9007;SDS011;62813;51.424;6.762;2022-10-16T12:47:55;3.53;;;1.23;;
9007;SDS011;62813;51.424;6.762;2022-10-16T12:50:36;3.93;;;1.20;;
9007;SDS011;62813;51.424;6.762;2022-10-16T12:53:16;4.68;;;1.52;;
9007;SDS011;62813;51.424;6.762;2022-10-16T12:56:19;3.33;;;1.30;;
9007;SDS011;62813;51.424;6.762;2022-10-16T12:59:11;1.87;;;1.10;;
9007;SDS011;62813;51.424;6.762;2022-10-16T13:01:42;2.87;;;1.27;;
9007;SDS011;62813;51.424;6.762;2022-10-16T13:10:25;5.80;;;1.37;;
9007;SDS011;62813;51.424;6.762;2022-10-16T13:16:22;2.43;;;1.20;;
9007;SDS011;62813;51.424;6.762;2022-10-16T13:28:06;4.43;;;1.43;;
9007;SDS011;62813;51.424;6.762;2022-10-16T13:30:41;3.60;;;1.57;;
9007;SDS011;62813;51.424;6.762;2022-10-16T13:33:16;2.77;;;1.73;;
9007;SDS011;62813;51.424;6.762;2022-10-16T13:35:47;5.00;;;1.93;;
9007;SDS011;62813;51.424;6.762;2022-10-16T13:38:22;3.73;;;1.50;;
9007;SDS011;62813;51.424;6.762;2022-10-16T13:40:57;2.73;;;1.30;;
9007;SDS011;62813;51.424;6.762;2022-10-16T13:43:36;4.10;;;1.40;;
9007;SDS011;62813;51.424;6.762;2022-10-16T13:46:06;3.00;;;1.50;;
9007;SDS011;62813;51.424;6.762;2022-10-16T13:48:41;4.00;;;1.53;;
9007;SDS011;62813;51.424;6.762;2022-10-16T13:53:40;2.47;;;1.20;;
9007;SDS011;62813;51.424;6.762;2022-10-16T13:56:09;2.97;;;1.00;;
9007;SDS011;62813;51.424;6.762;2022-10-16T13:58:38;2.80;;;1.00;;
9007;SDS011;62813;51.424;6.762;2022-10-16T14:01:06;4.27;;;1.20;;
9007;SDS011;62813;51.424;6.762;2022-10-16T14:03:43;2.20;;;1.27;;
9007;SDS011;62813;51.424;6.762;2022-10-16T14:06:12;8.17;;;2.13;;
9007;SDS011;62813;51.424;6.762;2022-10-16T14:08:42;4.10;;;2.00;;
9007;SDS011;62813;51.424;6.762;2022-10-16T14:11:12;4.80;;;1.37;;
9007;SDS011;62813;51.424;6.762;2022-10-16T14:13:45;3.13;;;1.53;;
9007;SDS011;62813;51.424;6.762;2022-10-16T14:16:31;3.27;;;1.40;;
9007;SDS011;62813;51.424;6.762;2022-10-16T14:19:00;4.23;;;1.60;;
9007;SDS011;62813;51.424;6.762;2022-10-16T14:21:32;4.50;;;1.27;;
9007;SDS011;62813;51.424;6.762;2022-10-16T14:24:10;3.57;;;1.50;;
9007;SDS011;62813;51.424;6.762;2022-10-16T14:26:42;3.03;;;1.10;;
9007;SDS011;62813;51.424;6.762;2022-10-16T14:29:19;3.53;;;1.90;;
9007;SDS011;62813;51.424;6.762;2022-10-16T14:34:23;5.70;;;2.30;;
9007;SDS011;62813;51.424;6.762;2022-10-16T14:36:54;6.63;;;2.30;;
9007;SDS011;62813;51.424;6.762;2022-10-16T14:39:22;7.03;;;2.40;;
9007;SDS011;62813;51.424;6.762;2022-10-16T14:41:52;5.50;;;3.40;;
9007;SDS011;62813;51.424;6.762;2022-10-16T14:44:26;4.57;;;3.20;;
9007;SDS011;62813;51.424;6.762;2022-10-16T14:47:06;4.70;;;2.87;;
9007;SDS011;62813;51.424;6.762;2022-10-16T14:49:35;4.70;;;3.50;;
9007;SDS011;62813;51.424;6.762;2022-10-16T14:52:04;5.03;;;3.20;;
9007;SDS011;62813;51.424;6.762;2022-10-16T14:54:34;4.73;;;2.43;;
9007;SDS011;62813;51.424;6.762;2022-10-16T14:57:01;4.03;;;2.20;;
9007;SDS011;62813;51.424;6.762;2022-10-16T14:59:38;4.33;;;2.33;;
9007;SDS011;62813;51.424;6.762;2022-10-16T15:04:47;5.00;;;2.70;;
9007;SDS011;62813;51.424;6.762;2022-10-16T15:07:14;3.47;;;2.47;;
9007;SDS011;62813;51.424;6.762;2022-10-16T15:09:41;4.43;;;2.37;;
9007;SDS011;62813;51.424;6.762;2022-10-16T15:12:14;5.37;;;2.43;;
9007;SDS011;62813;51.424;6.762;2022-10-16T15:14:42;3.37;;;2.00;;
9007;SDS011;62813;51.424;6.762;2022-10-16T15:17:09;3.47;;;1.50;;
9007;SDS011;62813;51.424;6.762;2022-10-16T15:19:37;3.60;;;2.00;;
9007;SDS011;62813;51.424;6.762;2022-10-16T15:22:03;3.13;;;1.73;;
9007;SDS011;62813;51.424;6.762;2022-10-16T15:24:30;3.33;;;1.80;;
9007;SDS011;62813;51.424;6.762;2022-10-16T15:26:57;4.13;;;1.80;;
9007;SDS011;62813;51.424;6.762;2022-10-16T15:29:23;3.73;;;1.60;;
9007;SDS011;62813;51.424;6.762;2022-10-16T15:31:50;3.67;;;1.90;;
9007;SDS011;62813;51.424;6.762;2022-10-16T15:34:16;4.83;;;1.83;;
9007;SDS011;62813;51.424;6.762;2022-10-16T15:36:46;3.60;;;1.80;;
9007;SDS011;62813;51.424;6.762;2022-10-16T15:39:16;3.17;;;1.40;;
9007;SDS011;62813;51.424;6.762;2022-10-16T15:41:45;3.37;;;1.50;;
9007;SDS011;62813;51.424;6.762;2022-10-16T15:44:20;2.93;;;1.67;;
9007;SDS011;62813;51.424;6.762;2022-10-16T15:46:49;2.57;;;1.47;;
9007;SDS011;62813;51.424;6.762;2022-10-16T15:49:15;2.63;;;1.43;;
9007;SDS011;62813;51.424;6.762;2022-10-16T15:51:42;2.20;;;1.47;;
9007;SDS011;62813;51.424;6.762;2022-10-16T15:54:08;4.87;;;2.10;;
9007;SDS011;62813;51.424;6.762;2022-10-16T15:56:35;3.43;;;1.90;;
9007;SDS011;62813;51.424;6.762;2022-10-16T15:59:03;4.67;;;1.90;;
9007;SDS011;62813;51.424;6.762;2022-10-16T16:01:34;6.93;;;1.73;;
9007;SDS011;62813;51.424;6.762;2022-10-16T16:04:02;3.23;;;1.73;;
9007;SDS011;62813;51.424;6.762;2022-10-16T16:06:45;3.07;;;1.90;;
9007;SDS011;62813;51.424;6.762;2022-10-16T16:09:12;5.10;;;1.90;;
9007;SDS011;62813;51.424;6.762;2022-10-16T16:11:40;5.13;;;1.93;;
9007;SDS011;62813;51.424;6.762;2022-10-16T16:14:07;4.60;;;2.10;;
9007;SDS011;62813;51.424;6.762;2022-10-16T16:16:39;4.13;;;1.57;;
9007;SDS011;62813;51.424;6.762;2022-10-16T16:19:08;4.37;;;1.80;;
9007;SDS011;62813;51.424;6.762;2022-10-16T16:21:37;5.33;;;1.83;;
9007;SDS011;62813;51.424;6.762;2022-10-16T16:24:04;2.33;;;1.30;;
9007;SDS011;62813;51.424;6.762;2022-10-16T16:26:35;4.50;;;1.83;;
9007;SDS011;62813;51.424;6.762;2022-10-16T16:29:03;5.73;;;1.83;;
9007;SDS011;62813;51.424;6.762;2022-10-16T16:31:31;4.13;;;2.03;;
9007;SDS011;62813;51.424;6.762;2022-10-16T16:33:58;3.50;;;1.80;;
9007;SDS011;62813;51.424;6.762;2022-10-16T16:36:25;6.40;;;1.87;;
9007;SDS011;62813;51.424;6.762;2022-10-16T16:38:51;5.20;;;2.30;;
9007;SDS011;62813;51.424;6.762;2022-10-16T16:41:19;3.47;;;2.07;;
9007;SDS011;62813;51.424;6.762;2022-10-16T16:43:48;4.40;;;1.90;;
9007;SDS011;62813;51.424;6.762;2022-10-16T16:46:15;4.47;;;2.00;;
9007;SDS011;62813;51.424;6.762;2022-10-16T16:48:42;6.43;;;2.00;;
9007;SDS011;62813;51.424;6.762;2022-10-16T16:51:09;4.90;;;2.20;;
9007;SDS011;62813;51.424;6.762;2022-10-16T16:53:41;3.23;;;1.70;;
9007;SDS011;62813;51.424;6.762;2022-10-16T16:57:47;4.20;;;1.70;;
9007;SDS011;62813;51.424;6.762;2022-10-16T17:02:50;5.70;;;1.73;;
9007;SDS011;62813;51.424;6.762;2022-10-16T17:05:17;6.53;;;2.27;;
9007;SDS011;62813;51.424;6.762;2022-10-16T17:07:45;3.60;;;2.23;;
9007;SDS011;62813;51.424;6.762;2022-10-16T17:10:11;3.67;;;1.80;;
9007;SDS011;62813;51.424;6.762;2022-10-16T17:12:38;3.87;;;2.10;;
9007;SDS011;62813;51.424;6.762;2022-10-16T17:15:04;4.40;;;2.40;;
9007;SDS011;62813;51.424;6.762;2022-10-16T17:17:32;4.70;;;2.30;;
9007;SDS011;62813;51.424;6.762;2022-10-16T17:19:58;5.83;;;2.33;;
9007;SDS011;62813;51.424;6.762;2022-10-16T17:22:25;5.07;;;2.80;;
9007;SDS011;62813;51.424;6.762;2022-10-16T17:24:52;5.77;;;2.47;;
9007;SDS011;62813;51.424;6.762;2022-10-16T17:27:20;6.50;;;2.03;;
9007;SDS011;62813;51.424;6.762;2022-10-16T17:29:49;7.50;;;2.53;;
9007;SDS011;62813;51.424;6.762;2022-10-16T17:32:17;6.13;;;2.07;;
9007;SDS011;62813;51.424;6.762;2022-10-16T17:34:46;6.67;;;2.87;;
9007;SDS011;62813;51.424;6.762;2022-10-16T17:37:13;5.30;;;2.53;;
9007;SDS011;62813;51.424;6.762;2022-10-16T17:39:43;7.63;;;2.53;;